RYR53VV LIEA-LZIB
Flight info
| Callsign | RYR53VV |
|---|---|
| Flight time | N/A |
| Altitude | 38000 |
| Route | MINKA L5 ROMPO DCT GISPA DCT NIKOL/N0436F390 DCT GIRDA DCT ADOMO DCT RADLY DCT NIGSI DCT BEGLA DCT KUVEX |
| Aircraft | B738/M-SDE3FGIJ1LRWY/SB1 |
Departure
| Time | N/A |
|---|---|
| Airport | Alghero-Fertilia Airport (LIEA) |
Arrival
| Time | 2026-04-29 11:50 |
|---|---|
| Airport | M. R. Štefánik Airport (LZIB) |
| Time | Latitude | Longitude | Altitude | Speed | Heading |
|---|---|---|---|---|---|
| 2026-04-29 11:29 | 46.88269 | 15.47598 | 38406 ft | 427 kts | 31° |
| 2026-04-29 11:29 | 46.90625 | 15.50271 | 37743 ft | 430 kts | 31° |
| 2026-04-29 11:29 | 46.92994 | 15.52961 | 37117 ft | 433 kts | 31° |
| 2026-04-29 11:30 | 46.95375 | 15.55672 | 36552 ft | 435 kts | 31° |
| 2026-04-29 11:30 | 46.97771 | 15.58407 | 35948 ft | 437 kts | 30° |
| 2026-04-29 11:30 | 47.00164 | 15.61144 | 35384 ft | 439 kts | 30° |
| 2026-04-29 11:30 | 47.02569 | 15.63900 | 34882 ft | 439 kts | 30° |
| 2026-04-29 11:31 | 47.04973 | 15.66660 | 34369 ft | 440 kts | 30° |
| 2026-04-29 11:31 | 47.07355 | 15.69397 | 33751 ft | 441 kts | 30° |
| 2026-04-29 11:31 | 47.09807 | 15.72214 | 33083 ft | 443 kts | 30° |
| 2026-04-29 11:31 | 47.12201 | 15.74969 | 32450 ft | 444 kts | 30° |
| 2026-04-29 11:32 | 47.14627 | 15.77785 | 31855 ft | 446 kts | 32° |
| 2026-04-29 11:32 | 47.16887 | 15.81067 | 31211 ft | 458 kts | 44° |
| 2026-04-29 11:32 | 47.18829 | 15.84723 | 30582 ft | 461 kts | 46° |
| 2026-04-29 11:32 | 47.20781 | 15.88554 | 29858 ft | 463 kts | 46° |
| 2026-04-29 11:33 | 47.22680 | 15.92312 | 29051 ft | 465 kts | 47° |
| 2026-04-29 11:33 | 47.24619 | 15.96131 | 28207 ft | 467 kts | 46° |
| 2026-04-29 11:33 | 47.26586 | 15.99949 | 27347 ft | 469 kts | 46° |
| 2026-04-29 11:33 | 47.28536 | 16.03708 | 26508 ft | 471 kts | 46° |
| 2026-04-29 11:34 | 47.30526 | 16.07543 | 25852 ft | 470 kts | 46° |
| 2026-04-29 11:34 | 47.32494 | 16.11351 | 25344 ft | 464 kts | 46° |
| 2026-04-29 11:34 | 47.34434 | 16.15117 | 24740 ft | 460 kts | 46° |
| 2026-04-29 11:34 | 47.36365 | 16.18869 | 24117 ft | 458 kts | 46° |
| 2026-04-29 11:35 | 47.38279 | 16.22598 | 23491 ft | 454 kts | 47° |
| 2026-04-29 11:35 | 47.40173 | 16.26294 | 22917 ft | 448 kts | 47° |
| 2026-04-29 11:35 | 47.42039 | 16.29942 | 22385 ft | 442 kts | 47° |
| 2026-04-29 11:35 | 47.43876 | 16.33537 | 21832 ft | 436 kts | 47° |
| 2026-04-29 11:36 | 47.45690 | 16.37091 | 21285 ft | 431 kts | 47° |
| 2026-04-29 11:36 | 47.47482 | 16.40605 | 20788 ft | 425 kts | 48° |
| 2026-04-29 11:36 | 47.49246 | 16.44068 | 20283 ft | 419 kts | 48° |
| 2026-04-29 11:36 | 47.50990 | 16.47494 | 19661 ft | 416 kts | 48° |
| 2026-04-29 11:37 | 47.52724 | 16.50907 | 19072 ft | 413 kts | 49° |
| 2026-04-29 11:37 | 47.54436 | 16.54278 | 18556 ft | 407 kts | 49° |
| 2026-04-29 11:37 | 47.56124 | 16.57609 | 17981 ft | 402 kts | 49° |
| 2026-04-29 11:37 | 47.57791 | 16.60904 | 17362 ft | 398 kts | 49° |
| 2026-04-29 11:38 | 47.59444 | 16.64173 | 16757 ft | 395 kts | 49° |
| 2026-04-29 11:38 | 47.61083 | 16.67417 | 16169 ft | 391 kts | 49° |
| 2026-04-29 11:38 | 47.62705 | 16.70634 | 15591 ft | 388 kts | 50° |
| 2026-04-29 11:38 | 47.64312 | 16.73822 | 15032 ft | 385 kts | 50° |
| 2026-04-29 11:39 | 47.65905 | 16.76988 | 14488 ft | 381 kts | 50° |
| 2026-04-29 11:39 | 47.67484 | 16.80130 | 13923 ft | 378 kts | 50° |
| 2026-04-29 11:39 | 47.69050 | 16.83248 | 13324 ft | 375 kts | 50° |
| 2026-04-29 11:39 | 47.70599 | 16.86339 | 12761 ft | 371 kts | 50° |
| 2026-04-29 11:40 | 47.72133 | 16.89402 | 12206 ft | 368 kts | 50° |
| 2026-04-29 11:40 | 47.73652 | 16.92439 | 11642 ft | 365 kts | 50° |
| 2026-04-29 11:40 | 47.75158 | 16.95452 | 11102 ft | 362 kts | 50° |
| 2026-04-29 11:40 | 47.76651 | 16.98441 | 10607 ft | 358 kts | 50° |
| 2026-04-29 11:41 | 47.78069 | 17.01290 | 10492 ft | 336 kts | 50° |
| 2026-04-29 11:41 | 47.79417 | 17.03999 | 10338 ft | 315 kts | 50° |
| 2026-04-29 11:41 | 47.80680 | 17.06539 | 10214 ft | 296 kts | 50° |
| 2026-04-29 11:41 | 47.81875 | 17.08944 | 9906 ft | 285 kts | 50° |
| 2026-04-29 11:42 | 47.83048 | 17.11299 | 9423 ft | 282 kts | 50° |
| 2026-04-29 11:42 | 47.84295 | 17.13530 | 8894 ft | 279 kts | 45° |
| 2026-04-29 11:42 | 47.85600 | 17.15646 | 8407 ft | 276 kts | 44° |
| 2026-04-29 11:42 | 47.86897 | 17.17723 | 7946 ft | 272 kts | 44° |
| 2026-04-29 11:43 | 47.88179 | 17.19787 | 7460 ft | 270 kts | 45° |
| 2026-04-29 11:43 | 47.89429 | 17.21814 | 7019 ft | 270 kts | 45° |
| 2026-04-29 11:43 | 47.90700 | 17.23891 | 6778 ft | 266 kts | 45° |
| 2026-04-29 11:43 | 47.91936 | 17.25918 | 6527 ft | 263 kts | 45° |
| 2026-04-29 11:44 | 47.93144 | 17.27903 | 6273 ft | 261 kts | 45° |
| 2026-04-29 11:44 | 47.94356 | 17.29900 | 6067 ft | 258 kts | 46° |
| 2026-04-29 11:44 | 47.95537 | 17.31849 | 6001 ft | 249 kts | 46° |
| 2026-04-29 11:44 | 47.96669 | 17.33719 | 5994 ft | 237 kts | 46° |
| 2026-04-29 11:45 | 47.97746 | 17.35501 | 5987 ft | 225 kts | 45° |
| 2026-04-29 11:45 | 47.98776 | 17.37196 | 5943 ft | 216 kts | 46° |
| 2026-04-29 11:45 | 47.99778 | 17.38841 | 5670 ft | 214 kts | 46° |
| 2026-04-29 11:45 | 48.00776 | 17.40481 | 5311 ft | 214 kts | 46° |
| 2026-04-29 11:46 | 48.01930 | 17.41818 | 4878 ft | 211 kts | 19° |
| 2026-04-29 11:46 | 48.03366 | 17.41831 | 4412 ft | 210 kts | 341° |
| 2026-04-29 11:46 | 48.04567 | 17.40574 | 3813 ft | 215 kts | 317° |
| 2026-04-29 11:46 | 48.05619 | 17.39014 | 3388 ft | 210 kts | 316° |
| 2026-04-29 11:47 | 48.06612 | 17.37478 | 3084 ft | 201 kts | 315° |
| 2026-04-29 11:47 | 48.07244 | 17.36489 | 2905 ft | 196 kts | 316° |
| 2026-04-29 11:47 | 48.08168 | 17.35036 | 2617 ft | 189 kts | 316° |
| 2026-04-29 11:47 | 48.09051 | 17.33663 | 2403 ft | 180 kts | 316° |
| 2026-04-29 11:48 | 48.09915 | 17.32319 | 2154 ft | 179 kts | 316° |
| 2026-04-29 11:48 | 48.10773 | 17.30981 | 1898 ft | 176 kts | 316° |
| 2026-04-29 11:48 | 48.11591 | 17.29705 | 1683 ft | 164 kts | 316° |
| 2026-04-29 11:48 | 48.12343 | 17.28529 | 1445 ft | 150 kts | 317° |
| 2026-04-29 11:49 | 48.13047 | 17.27433 | 1236 ft | 145 kts | 318° |
| 2026-04-29 11:49 | 48.13751 | 17.26342 | 1046 ft | 147 kts | 316° |
| 2026-04-29 11:49 | 48.14455 | 17.25239 | 832 ft | 145 kts | 316° |
| 2026-04-29 11:49 | 48.15138 | 17.24169 | 627 ft | 140 kts | 316° |
| 2026-04-29 11:50 | 48.15816 | 17.23113 | 433 ft | 143 kts | 316° |
| 2026-04-29 11:50 | 48.16447 | 17.22143 | 429 ft | 113 kts | 314° |
| 2026-04-29 11:50 | 48.16904 | 17.21432 | 425 ft | 74 kts | 313° |
| 2026-04-29 11:50 | 48.17131 | 17.21076 | 424 ft | 16 kts | 302° |
| 2026-04-29 11:51 | 48.17081 | 17.20947 | 422 ft | 16 kts | 226° |
| 2026-04-29 11:51 | 48.17056 | 17.20826 | 421 ft | 13 kts | 307° |
| 2026-04-29 11:51 | 48.17114 | 17.20730 | 430 ft | 12 kts | 312° |
| 2026-04-29 11:51 | 48.17162 | 17.20629 | 425 ft | 12 kts | 280° |
| 2026-04-29 11:52 | 48.17122 | 17.20510 | 427 ft | 14 kts | 225° |
| 2026-04-29 11:52 | 48.17046 | 17.20399 | 425 ft | 15 kts | 224° |
| 2026-04-29 11:52 | 48.16966 | 17.20282 | 434 ft | 17 kts | 224° |
| 2026-04-29 11:52 | 48.16926 | 17.20183 | 439 ft | 7 kts | 292° |
| 2026-04-29 11:53 | 48.16949 | 17.20145 | 440 ft | 2 kts | 313° |
| 2026-04-29 11:53 | 48.16951 | 17.20142 | 440 ft | 0 kts | 313° |